Time;durP1;ratioP1;P1;durP2;ratioP2;P2;SDS_P1;SDS_P2;PMS_P1;PMS_P2;Temp;Humidity;BMP_temperature;BMP_pressure;BME280_temperature;BME280_humidity;BME280_pressure;Samples;Min_cycle;Max_cycle;Signal;HPM_P1;HPM_P2
2022/10/10 00:00:57;;;;;;;0.10;0.10;;;;;;;;;;4992299;28;20051;-82
2022/10/10 00:03:24;;;;;;;0.10;0.10;;;;;;;;;;5009892;28;20046;-81
2022/10/10 00:05:50;;;;;;;0.10;0.10;;;;;;;;;;5009376;28;20061;-81
2022/10/10 00:08:16;;;;;;;0.10;0.10;;;;;;;;;;5008139;28;20048;-81
2022/10/10 00:10:42;;;;;;;0.10;0.10;;;;;;;;;;5007548;28;20046;-82
2022/10/10 00:13:08;;;;;;;0.20;0.20;;;;;;;;;;5006758;28;20057;-83
2022/10/10 00:15:34;;;;;;;0.10;0.10;;;;;;;;;;5008210;28;20056;-82
2022/10/10 00:18:00;;;;;;;0.10;0.10;;;;;;;;;;5023696;28;20084;-82
2022/10/10 00:20:26;;;;;;;0.40;0.40;;;;;;;;;;5007871;28;20469;-82
2022/10/10 00:22:52;;;;;;;0.10;0.10;;;;;;;;;;5006266;28;20409;-81
2022/10/10 00:25:18;;;;;;;0.00;0.00;;;;;;;;;;5008594;28;20049;-81
2022/10/10 00:27:44;;;;;;;0.20;0.20;;;;;;;;;;5007006;28;20504;-81
2022/10/10 00:30:11;;;;;;;0.10;0.10;;;;;;;;;;5006955;28;20394;-82
2022/10/10 00:32:37;;;;;;;0.10;0.10;;;;;;;;;;5006652;28;20056;-82
2022/10/10 00:35:04;;;;;;;0.10;0.10;;;;;;;;;;5024025;28;20059;-82
2022/10/10 00:37:30;;;;;;;0.10;0.10;;;;;;;;;;5020309;28;20392;-81
2022/10/10 00:39:56;;;;;;;0.10;0.10;;;;;;;;;;5011184;28;20057;-80
2022/10/10 00:42:22;;;;;;;0.10;0.10;;;;;;;;;;5029592;28;20049;-81
2022/10/10 00:45:08;;;;;;;0.10;0.10;;;;;;;;;;5009725;28;20054;-82
2022/10/10 00:47:34;;;;;;;0.17;0.17;;;;;;;;;;5012730;28;20408;-82
2022/10/10 00:50:00;;;;;;;0.10;0.10;;;;;;;;;;5029715;28;20045;-82
2022/10/10 00:52:26;;;;;;;0.10;0.10;;;;;;;;;;5009910;28;20131;-81
2022/10/10 00:54:52;;;;;;;0.10;0.10;;;;;;;;;;4975004;28;20049;-83
2022/10/10 00:57:18;;;;;;;0.10;0.10;;;;;;;;;;5028626;28;20393;-82
2022/10/10 00:59:45;;;;;;;0.10;0.10;;;;;;;;;;5028606;28;20068;-82
2022/10/10 01:02:11;;;;;;;0.10;0.10;;;;;;;;;;5025797;28;20367;-81
2022/10/10 01:04:39;;;;;;;0.10;0.10;;;;;;;;;;5008817;28;20045;-80
2022/10/10 01:07:13;;;;;;;0.10;0.10;;;;;;;;;;5028896;28;20053;-80
2022/10/10 01:09:40;;;;;;;0.15;0.15;;;;;;;;;;5027097;28;20527;-79
2022/10/10 01:12:15;;;;;;;0.10;0.10;;;;;;;;;;5028734;28;20037;-81
2022/10/10 01:14:44;;;;;;;0.10;0.10;;;;;;;;;;5009013;28;20147;-81
2022/10/10 01:17:32;;;;;;;0.10;0.10;;;;;;;;;;5007081;28;20045;-82
2022/10/10 01:20:20;;;;;;;0.10;0.10;;;;;;;;;;5026866;28;20381;-82
2022/10/10 01:23:06;;;;;;;0.20;0.20;;;;;;;;;;5009077;28;20272;-82
2022/10/10 01:25:50;;;;;;;0.10;0.10;;;;;;;;;;5027030;28;20041;-81
2022/10/10 01:28:29;;;;;;;0.10;0.10;;;;;;;;;;5027471;28;20041;-82
2022/10/10 01:30:56;;;;;;;0.38;0.38;;;;;;;;;;5010149;28;20662;-82
2022/10/10 01:33:27;;;;;;;0.30;0.30;;;;;;;;;;5021840;28;20374;-82
2022/10/10 01:36:01;;;;;;;0.10;0.10;;;;;;;;;;5008316;28;20041;-81
2022/10/10 01:38:33;;;;;;;0.10;0.10;;;;;;;;;;5009588;28;20052;-82
2022/10/10 01:41:08;;;;;;;0.40;0.40;;;;;;;;;;5027648;28;20042;-82
2022/10/10 01:43:35;;;;;;;0.10;0.10;;;;;;;;;;5026270;28;20535;-81
2022/10/10 01:46:21;;;;;;;0.10;0.10;;;;;;;;;;5009541;28;20396;-81
2022/10/10 01:48:49;;;;;;;0.32;0.32;;;;;;;;;;5005402;28;20052;-82
2022/10/10 01:51:33;;;;;;;0.10;0.10;;;;;;;;;;5028949;28;20057;-82
2022/10/10 01:53:59;;;;;;;0.10;0.10;;;;;;;;;;5009163;28;20045;-82
2022/10/10 01:56:39;;;;;;;0.10;0.10;;;;;;;;;;5026053;28;20038;-82
2022/10/10 01:59:22;;;;;;;0.10;0.10;;;;;;;;;;5011206;28;20045;-82
2022/10/10 02:01:57;;;;;;;0.10;0.10;;;;;;;;;;5014807;28;20050;-82
2022/10/10 02:04:28;;;;;;;0.10;0.10;;;;;;;;;;5030711;28;20045;-82
2022/10/10 02:07:20;;;;;;;0.10;0.10;;;;;;;;;;5027933;28;20049;-82
2022/10/10 02:09:47;;;;;;;0.10;0.10;;;;;;;;;;5002101;28;20065;-81
2022/10/10 02:12:14;;;;;;;0.10;0.10;;;;;;;;;;5008367;28;20037;-82
2022/10/10 02:14:42;;;;;;;0.10;0.10;;;;;;;;;;5024775;28;20057;-82
2022/10/10 02:17:09;;;;;;;0.50;0.20;;;;;;;;;;5024861;28;21073;-81
2022/10/10 02:19:36;;;;;;;0.10;0.10;;;;;;;;;;5022060;28;20435;-79
2022/10/10 02:22:03;;;;;;;0.10;0.10;;;;;;;;;;5024485;28;20458;-82
2022/10/10 02:24:29;;;;;;;0.10;0.10;;;;;;;;;;5023953;28;20943;-82
2022/10/10 02:26:58;;;;;;;0.10;0.10;;;;;;;;;;5024408;28;20426;-82
2022/10/10 02:29:26;;;;;;;0.10;0.10;;;;;;;;;;5007266;28;20507;-82
2022/10/10 02:31:52;;;;;;;0.20;0.20;;;;;;;;;;5010556;28;20484;-82
2022/10/10 02:34:21;;;;;;;0.10;0.10;;;;;;;;;;5024486;28;20419;-81
2022/10/10 02:36:49;;;;;;;0.30;0.30;;;;;;;;;;5025558;28;20487;-82
2022/10/10 02:39:17;;;;;;;2.00;0.70;;;;;;;;;;5023930;28;20515;-82
2022/10/10 02:41:44;;;;;;;0.30;0.30;;;;;;;;;;5024758;28;20426;-81
2022/10/10 02:44:11;;;;;;;0.15;0.15;;;;;;;;;;5024774;28;20920;-82
2022/10/10 02:46:37;;;;;;;0.10;0.10;;;;;;;;;;5008062;28;20517;-81
2022/10/10 02:49:07;;;;;;;0.25;0.25;;;;;;;;;;5025091;28;20430;-82
2022/10/10 02:51:33;;;;;;;0.13;0.13;;;;;;;;;;5027380;28;20430;-83
2022/10/10 02:53:59;;;;;;;0.10;0.10;;;;;;;;;;5007679;28;20431;-85
2022/10/10 02:56:25;;;;;;;0.10;0.10;;;;;;;;;;5006341;28;20934;-80
2022/10/10 02:58:51;;;;;;;0.20;0.20;;;;;;;;;;5025633;28;20941;-82
2022/10/10 03:01:17;;;;;;;0.10;0.10;;;;;;;;;;5007161;28;20463;-81
2022/10/10 03:03:43;;;;;;;0.20;0.20;;;;;;;;;;5012246;28;20485;-82
2022/10/10 03:06:09;;;;;;;0.10;0.10;;;;;;;;;;5008409;28;20435;-82
2022/10/10 03:08:37;;;;;;;0.10;0.10;;;;;;;;;;5008666;28;20516;-81
2022/10/10 03:11:03;;;;;;;0.10;0.10;;;;;;;;;;5005872;28;20506;-83
2022/10/10 03:13:29;;;;;;;0.20;0.20;;;;;;;;;;5028518;28;20423;-79
2022/10/10 03:15:55;;;;;;;0.20;0.20;;;;;;;;;;5006163;28;20506;-82
2022/10/10 03:18:22;;;;;;;0.10;0.10;;;;;;;;;;5024653;28;20441;-81
2022/10/10 03:20:52;;;;;;;0.10;0.10;;;;;;;;;;4991377;28;21125;-82
2022/10/10 03:23:18;;;;;;;0.35;0.28;;;;;;;;;;5009130;28;20509;-82
2022/10/10 03:25:45;;;;;;;0.10;0.10;;;;;;;;;;5024488;28;20414;-82
2022/10/10 03:28:11;;;;;;;0.10;0.10;;;;;;;;;;5025264;28;20502;-81
2022/10/10 03:30:37;;;;;;;0.10;0.10;;;;;;;;;;5004996;28;20434;-83
2022/10/10 03:33:04;;;;;;;0.15;0.15;;;;;;;;;;5006142;28;20434;-83
2022/10/10 03:35:30;;;;;;;0.30;0.30;;;;;;;;;;5024148;28;20900;-81
2022/10/10 03:37:56;;;;;;;0.10;0.10;;;;;;;;;;5024745;28;20553;-80
2022/10/10 03:40:22;;;;;;;0.10;0.10;;;;;;;;;;5026059;28;20442;-82
2022/10/10 03:42:48;;;;;;;0.50;0.50;;;;;;;;;;5006987;28;20925;-81
2022/10/10 03:45:14;;;;;;;0.20;0.20;;;;;;;;;;5022309;28;20450;-81
2022/10/10 03:47:40;;;;;;;0.10;0.10;;;;;;;;;;5025111;28;20457;-82
2022/10/10 03:50:07;;;;;;;0.10;0.10;;;;;;;;;;5006682;28;20462;-82
2022/10/10 03:52:33;;;;;;;0.00;0.00;;;;;;;;;;5007917;28;20433;-82
2022/10/10 03:54:59;;;;;;;0.10;0.10;;;;;;;;;;5024943;28;20522;-82
2022/10/10 03:57:25;;;;;;;0.10;0.10;;;;;;;;;;5007274;28;20933;-82
2022/10/10 03:59:51;;;;;;;0.10;0.10;;;;;;;;;;5010612;28;20461;-81
2022/10/10 04:02:17;;;;;;;0.40;0.40;;;;;;;;;;5023004;28;20423;-82
2022/10/10 04:04:43;;;;;;;0.10;0.10;;;;;;;;;;5006624;28;20467;-82
2022/10/10 04:07:09;;;;;;;1.00;0.40;;;;;;;;;;5025653;28;20507;-82
2022/10/10 04:09:35;;;;;;;0.50;0.50;;;;;;;;;;5010734;28;20427;-82
2022/10/10 04:12:01;;;;;;;0.20;0.20;;;;;;;;;;5029096;28;20434;-82
2022/10/10 04:14:27;;;;;;;0.10;0.10;;;;;;;;;;5010651;28;20435;-81
2022/10/10 04:16:53;;;;;;;0.10;0.10;;;;;;;;;;5026086;28;20431;-81
2022/10/10 04:19:19;;;;;;;0.80;0.60;;;;;;;;;;5027777;28;20473;-81
2022/10/10 04:21:45;;;;;;;0.10;0.10;;;;;;;;;;5010273;28;20418;-82
2022/10/10 04:24:11;;;;;;;0.10;0.10;;;;;;;;;;5011046;28;20514;-80
2022/10/10 04:26:37;;;;;;;0.20;0.20;;;;;;;;;;5008471;28;20807;-82
2022/10/10 04:29:04;;;;;;;0.38;0.38;;;;;;;;;;5027348;28;20845;-83
2022/10/10 04:31:30;;;;;;;0.20;0.20;;;;;;;;;;5025947;28;20918;-82
2022/10/10 04:33:56;;;;;;;0.10;0.10;;;;;;;;;;5024069;28;20898;-82
2022/10/10 04:36:22;;;;;;;0.25;0.25;;;;;;;;;;5027603;28;20431;-81
2022/10/10 04:38:48;;;;;;;0.10;0.10;;;;;;;;;;5008742;28;20464;-77
2022/10/10 04:41:14;;;;;;;0.10;0.10;;;;;;;;;;5029068;28;20842;-79
2022/10/10 04:43:40;;;;;;;0.20;0.20;;;;;;;;;;5022603;28;21037;-81
2022/10/10 04:46:06;;;;;;;0.10;0.10;;;;;;;;;;5038743;28;20754;-82
2022/10/10 04:48:32;;;;;;;0.60;0.60;;;;;;;;;;5032456;28;20562;-80
2022/10/10 04:50:58;;;;;;;0.10;0.10;;;;;;;;;;5026095;28;20501;-82
2022/10/10 04:53:25;;;;;;;0.10;0.10;;;;;;;;;;5027446;28;20794;-83
2022/10/10 04:55:52;;;;;;;0.10;0.10;;;;;;;;;;5010867;28;20502;-79
2022/10/10 04:58:18;;;;;;;0.20;0.20;;;;;;;;;;5032861;28;20422;-81
2022/10/10 05:00:44;;;;;;;0.10;0.10;;;;;;;;;;5014259;28;20427;-81
2022/10/10 05:03:11;;;;;;;0.10;0.10;;;;;;;;;;5025910;28;20789;-83
2022/10/10 05:05:38;;;;;;;0.10;0.10;;;;;;;;;;5009436;28;20780;-80
2022/10/10 05:08:05;;;;;;;0.17;0.17;;;;;;;;;;5010436;28;20438;-81
2022/10/10 05:10:34;;;;;;;1.10;0.50;;;;;;;;;;5031410;28;20434;-82
2022/10/10 05:13:00;;;;;;;0.20;0.20;;;;;;;;;;5029912;28;20550;-82
2022/10/10 05:15:27;;;;;;;0.30;0.30;;;;;;;;;;5012720;28;20430;-80
2022/10/10 05:17:53;;;;;;;0.20;0.20;;;;;;;;;;5030339;28;20901;-82
2022/10/10 05:20:19;;;;;;;0.10;0.10;;;;;;;;;;5014140;28;20953;-81
2022/10/10 05:22:45;;;;;;;0.10;0.10;;;;;;;;;;5012830;28;20832;-81
2022/10/10 05:25:11;;;;;;;0.10;0.10;;;;;;;;;;4992482;28;20439;-81
2022/10/10 05:27:37;;;;;;;0.10;0.10;;;;;;;;;;5028727;28;20431;-82
2022/10/10 05:30:05;;;;;;;0.10;0.10;;;;;;;;;;5029732;28;20423;-82
2022/10/10 05:32:31;;;;;;;0.10;0.10;;;;;;;;;;5012911;28;20442;-82
2022/10/10 05:34:57;;;;;;;0.20;0.20;;;;;;;;;;5013301;28;20428;-81
2022/10/10 05:37:23;;;;;;;0.10;0.10;;;;;;;;;;5027282;28;20925;-80
2022/10/10 05:39:49;;;;;;;0.10;0.10;;;;;;;;;;5030426;28;20580;-81
2022/10/10 05:42:15;;;;;;;0.10;0.10;;;;;;;;;;5029644;28;20427;-82
2022/10/10 05:44:41;;;;;;;0.10;0.10;;;;;;;;;;5031698;28;20423;-81
2022/10/10 05:47:07;;;;;;;0.10;0.10;;;;;;;;;;5011712;28;20778;-82
2022/10/10 05:49:33;;;;;;;0.30;0.10;;;;;;;;;;5031666;28;20474;-82
2022/10/10 05:51:59;;;;;;;0.10;0.10;;;;;;;;;;5010183;28;20435;-81
2022/10/10 05:54:25;;;;;;;0.50;0.50;;;;;;;;;;5008182;28;20438;-80
2022/10/10 05:56:51;;;;;;;0.10;0.10;;;;;;;;;;5007888;28;20779;-82
2022/10/10 05:59:17;;;;;;;0.10;0.10;;;;;;;;;;5012449;28;20427;-81
2022/10/10 06:01:43;;;;;;;0.40;0.40;;;;;;;;;;5029846;28;20417;-82
2022/10/10 06:04:09;;;;;;;0.10;0.10;;;;;;;;;;5009389;28;20419;-81
2022/10/10 06:06:35;;;;;;;0.10;0.10;;;;;;;;;;5024342;28;20431;-81
2022/10/10 06:09:01;;;;;;;0.10;0.10;;;;;;;;;;5030195;28;20510;-81
2022/10/10 06:11:28;;;;;;;0.68;0.60;;;;;;;;;;5031301;28;20462;-82
2022/10/10 06:13:54;;;;;;;0.10;0.10;;;;;;;;;;5006746;28;20556;-82
2022/10/10 06:16:21;;;;;;;0.10;0.10;;;;;;;;;;5011208;28;20936;-81
2022/10/10 06:18:47;;;;;;;0.10;0.10;;;;;;;;;;5013003;28;20470;-81
2022/10/10 06:21:13;;;;;;;0.60;0.60;;;;;;;;;;5029283;28;20434;-82
2022/10/10 06:23:40;;;;;;;0.10;0.10;;;;;;;;;;5027879;28;20517;-81
2022/10/10 06:26:06;;;;;;;0.10;0.10;;;;;;;;;;5012563;28;20431;-81
2022/10/10 06:28:34;;;;;;;0.10;0.10;;;;;;;;;;5029920;28;20537;-83
2022/10/10 06:31:00;;;;;;;0.10;0.10;;;;;;;;;;5026951;28;20529;-81
2022/10/10 06:33:27;;;;;;;0.10;0.10;;;;;;;;;;5021832;28;20506;-80
2022/10/10 06:35:53;;;;;;;0.10;0.10;;;;;;;;;;5011698;28;20489;-82
2022/10/10 06:38:19;;;;;;;0.13;0.13;;;;;;;;;;5024440;28;20465;-82
2022/10/10 06:40:45;;;;;;;0.10;0.10;;;;;;;;;;5028280;28;20422;-80
2022/10/10 06:43:12;;;;;;;0.10;0.10;;;;;;;;;;4995665;28;20508;-81
2022/10/10 06:45:39;;;;;;;0.10;0.10;;;;;;;;;;5029518;28;20936;-82
2022/10/10 06:48:05;;;;;;;0.30;0.30;;;;;;;;;;5013886;28;20564;-81
2022/10/10 06:50:31;;;;;;;0.10;0.10;;;;;;;;;;5023789;28;20939;-78
2022/10/10 06:52:57;;;;;;;1.30;0.70;;;;;;;;;;5007021;28;20510;-82
2022/10/10 06:55:23;;;;;;;0.40;0.40;;;;;;;;;;5026528;28;20454;-79
2022/10/10 06:57:49;;;;;;;0.10;0.10;;;;;;;;;;5000432;28;20438;-82
2022/10/10 07:00:16;;;;;;;2.70;0.30;;;;;;;;;;5005145;28;20495;-81
2022/10/10 07:02:42;;;;;;;0.20;0.20;;;;;;;;;;5029661;28;20612;-82
2022/10/10 07:05:12;;;;;;;0.10;0.10;;;;;;;;;;5030886;28;20418;-81
2022/10/10 07:07:39;;;;;;;0.90;0.70;;;;;;;;;;5010798;28;20517;-81
2022/10/10 07:10:06;;;;;;;0.20;0.20;;;;;;;;;;5012618;28;20499;-81
2022/10/10 07:12:32;;;;;;;1.20;0.30;;;;;;;;;;5026801;28;20430;-82
2022/10/10 07:14:58;;;;;;;0.10;0.10;;;;;;;;;;5027084;28;20422;-82
2022/10/10 07:17:24;;;;;;;0.20;0.20;;;;;;;;;;5024969;28;20426;-83
2022/10/10 07:19:50;;;;;;;0.10;0.10;;;;;;;;;;5019364;28;20500;-82
2022/10/10 07:22:16;;;;;;;0.08;0.08;;;;;;;;;;5027882;28;20914;-84
2022/10/10 07:24:45;;;;;;;0.10;0.10;;;;;;;;;;5024359;28;20521;-79
2022/10/10 07:27:11;;;;;;;0.20;0.20;;;;;;;;;;5025718;28;20793;-83
2022/10/10 07:29:37;;;;;;;0.10;0.10;;;;;;;;;;5019791;28;20485;-83
2022/10/10 07:32:04;;;;;;;0.10;0.10;;;;;;;;;;5030708;28;20442;-87
2022/10/10 07:34:30;;;;;;;0.10;0.10;;;;;;;;;;5026278;28;20433;-83
2022/10/10 07:36:56;;;;;;;0.30;0.30;;;;;;;;;;5029371;28;20427;-84
2022/10/10 07:39:23;;;;;;;0.10;0.10;;;;;;;;;;5029097;28;20445;-85
2022/10/10 07:41:49;;;;;;;0.13;0.13;;;;;;;;;;5033122;28;20938;-80
2022/10/10 07:44:15;;;;;;;0.20;0.20;;;;;;;;;;5022062;28;20485;-85
2022/10/10 07:46:41;;;;;;;0.10;0.10;;;;;;;;;;5024510;28;20430;-85
2022/10/10 07:49:07;;;;;;;0.10;0.10;;;;;;;;;;5026021;28;20427;-84
2022/10/10 07:51:34;;;;;;;1.20;0.90;;;;;;;;;;5025655;28;20466;-84
2022/10/10 07:54:00;;;;;;;0.35;0.35;;;;;;;;;;5018743;28;20422;-83
2022/10/10 07:56:26;;;;;;;0.10;0.10;;;;;;;;;;5009893;28;20436;-84
2022/10/10 07:58:52;;;;;;;0.10;0.10;;;;;;;;;;5030882;28;20430;-83
2022/10/10 08:01:18;;;;;;;0.35;0.35;;;;;;;;;;5041454;28;20486;-82
2022/10/10 08:03:45;;;;;;;0.10;0.10;;;;;;;;;;5034591;28;20419;-80
2022/10/10 08:06:12;;;;;;;0.10;0.10;;;;;;;;;;5033141;28;20466;-84
2022/10/10 08:08:39;;;;;;;0.20;0.20;;;;;;;;;;5020383;28;20435;-82
2022/10/10 08:11:06;;;;;;;0.20;0.20;;;;;;;;;;5030569;28;20427;-83
2022/10/10 08:13:32;;;;;;;0.10;0.10;;;;;;;;;;5017164;28;20424;-79
2022/10/10 08:15:58;;;;;;;0.10;0.10;;;;;;;;;;4999344;28;20435;-85
2022/10/10 08:18:24;;;;;;;0.70;0.60;;;;;;;;;;5030400;28;20430;-85
2022/10/10 08:21:00;;;;;;;0.10;0.10;;;;;;;;;;5031404;28;20423;-85
2022/10/10 08:23:26;;;;;;;0.20;0.20;;;;;;;;;;5020995;28;20423;-83
2022/10/10 08:25:53;;;;;;;0.10;0.10;;;;;;;;;;5031190;28;20418;-84
2022/10/10 08:28:19;;;;;;;0.10;0.10;;;;;;;;;;5033315;28;20431;-83
2022/10/10 08:30:45;;;;;;;0.10;0.10;;;;;;;;;;5015006;28;20573;-84
2022/10/10 08:33:11;;;;;;;0.10;0.10;;;;;;;;;;5031613;28;20423;-82
2022/10/10 08:35:40;;;;;;;0.40;0.30;;;;;;;;;;5013849;28;20922;-85
2022/10/10 08:38:07;;;;;;;0.10;0.10;;;;;;;;;;5032287;28;20430;-82
2022/10/10 08:40:34;;;;;;;0.40;0.40;;;;;;;;;;5031259;28;20933;-83
2022/10/10 08:43:04;;;;;;;0.13;0.13;;;;;;;;;;5028329;28;20423;-84
2022/10/10 08:45:32;;;;;;;0.20;0.20;;;;;;;;;;5031079;28;20427;-85
2022/10/10 08:48:00;;;;;;;0.10;0.10;;;;;;;;;;5013956;28;20813;-85
2022/10/10 08:50:32;;;;;;;0.10;0.10;;;;;;;;;;5031330;28;20542;-84
2022/10/10 08:53:03;;;;;;;0.20;0.20;;;;;;;;;;5011696;28;20427;-81
2022/10/10 08:55:32;;;;;;;0.10;0.10;;;;;;;;;;5028496;28;20441;-85
2022/10/10 08:58:10;;;;;;;0.40;0.40;;;;;;;;;;5014448;28;20484;-86
2022/10/10 09:00:44;;;;;;;0.30;0.30;;;;;;;;;;5031483;28;20518;-84
2022/10/10 09:03:19;;;;;;;0.30;0.30;;;;;;;;;;5014681;28;20453;-82
2022/10/10 09:06:04;;;;;;;0.20;0.20;;;;;;;;;;5028614;28;20415;-82
2022/10/10 09:08:34;;;;;;;0.10;0.10;;;;;;;;;;5031346;28;20430;-81
2022/10/10 09:11:00;;;;;;;0.20;0.20;;;;;;;;;;5030054;28;20422;-85
2022/10/10 09:13:31;;;;;;;0.10;0.10;;;;;;;;;;5021564;28;20429;-86
2022/10/10 09:15:58;;;;;;;0.10;0.10;;;;;;;;;;5022622;28;20441;-83
2022/10/10 09:18:34;;;;;;;0.20;0.20;;;;;;;;;;5029642;28;20423;-85
2022/10/10 09:21:00;;;;;;;0.10;0.10;;;;;;;;;;5019452;28;20427;-86
2022/10/10 09:23:32;;;;;;;0.17;0.17;;;;;;;;;;5031752;28;20427;-84
2022/10/10 09:26:04;;;;;;;0.10;0.10;;;;;;;;;;5031411;28;20481;-87
2022/10/10 09:28:48;;;;;;;0.60;0.50;;;;;;;;;;5005656;28;20928;-85
2022/10/10 09:31:23;;;;;;;0.10;0.10;;;;;;;;;;5028107;28;20431;-85
2022/10/10 09:33:55;;;;;;;0.10;0.10;;;;;;;;;;5008831;28;20520;-87
2022/10/10 09:36:23;;;;;;;0.10;0.10;;;;;;;;;;5006729;28;20560;-86
2022/10/10 09:38:52;;;;;;;0.20;0.20;;;;;;;;;;5008703;28;20451;-88
2022/10/10 09:41:19;;;;;;;0.10;0.10;;;;;;;;;;5011010;28;20949;-86
2022/10/10 09:43:46;;;;;;;0.10;0.10;;;;;;;;;;5011136;28;20435;-87
2022/10/10 09:46:13;;;;;;;0.20;0.10;;;;;;;;;;5025206;28;20482;-82
2022/10/10 09:48:40;;;;;;;0.80;0.30;;;;;;;;;;5012066;28;20762;-88
2022/10/10 09:51:12;;;;;;;0.20;0.20;;;;;;;;;;5011027;28;20421;-82
2022/10/10 09:53:39;;;;;;;0.10;0.10;;;;;;;;;;5005546;28;20429;-85
2022/10/10 09:56:06;;;;;;;0.20;0.20;;;;;;;;;;5004003;28;20459;-80
2022/10/10 09:58:35;;;;;;;0.10;0.10;;;;;;;;;;5004245;28;20483;-81
2022/10/10 10:01:28;;;;;;;0.10;0.10;;;;;;;;;;5006484;28;20768;-80
2022/10/10 10:04:03;;;;;;;0.10;0.10;;;;;;;;;;4986636;28;20428;-84
2022/10/10 10:06:29;;;;;;;0.10;0.10;;;;;;;;;;5005890;28;20459;-83
2022/10/10 10:09:00;;;;;;;0.10;0.10;;;;;;;;;;5008352;28;20432;-86
2022/10/10 10:11:32;;;;;;;0.10;0.10;;;;;;;;;;5011659;28;20788;-85
2022/10/10 10:14:01;;;;;;;0.10;0.10;;;;;;;;;;5011205;28;20428;-88
2022/10/10 10:16:37;;;;;;;0.50;0.50;;;;;;;;;;5010760;28;20464;-83
2022/10/10 10:19:03;;;;;;;0.10;0.10;;;;;;;;;;5011339;28;20435;-81
2022/10/10 10:21:31;;;;;;;0.30;0.30;;;;;;;;;;5012012;28;20912;-82
2022/10/10 10:24:19;;;;;;;0.30;0.30;;;;;;;;;;5011515;28;20435;-82
2022/10/10 10:26:47;;;;;;;0.70;0.40;;;;;;;;;;5004847;28;20511;-81
2022/10/10 10:29:29;;;;;;;0.10;0.10;;;;;;;;;;5008834;28;20421;-81
2022/10/10 10:32:34;;;;;;;0.20;0.20;;;;;;;;;;5007966;28;20438;-80
2022/10/10 10:35:17;;;;;;;0.10;0.10;;;;;;;;;;4982395;28;20440;-81
2022/10/10 10:37:53;;;;;;;0.28;0.15;;;;;;;;;;5001330;28;20520;-80
2022/10/10 10:40:24;;;;;;;0.30;0.30;;;;;;;;;;5004595;28;20434;-82
2022/10/10 10:42:56;;;;;;;0.10;0.10;;;;;;;;;;5003622;28;20495;-78
2022/10/10 10:45:29;;;;;;;0.10;0.10;;;;;;;;;;5009333;28;20520;-80
2022/10/10 10:47:55;;;;;;;0.13;0.13;;;;;;;;;;5001063;28;20784;-78
2022/10/10 10:50:21;;;;;;;0.10;0.10;;;;;;;;;;5008189;28;20495;-85
2022/10/10 10:52:56;;;;;;;0.10;0.10;;;;;;;;;;5011257;28;20420;-84
2022/10/10 10:55:25;;;;;;;0.10;0.10;;;;;;;;;;5008473;28;20505;-76
2022/10/10 10:58:10;;;;;;;0.10;0.10;;;;;;;;;;5011517;28;20467;-83
2022/10/10 11:00:43;;;;;;;0.00;0.00;;;;;;;;;;5010422;28;20429;-85
2022/10/10 11:03:30;;;;;;;0.80;0.50;;;;;;;;;;5005264;28;20506;-79
2022/10/10 11:06:04;;;;;;;0.30;0.25;;;;;;;;;;5004282;28;20432;-83
2022/10/10 11:08:42;;;;;;;0.10;0.10;;;;;;;;;;5004196;28;20464;-82
2022/10/10 11:11:17;;;;;;;0.50;0.30;;;;;;;;;;5003160;28;20491;-77
2022/10/10 11:13:43;;;;;;;0.13;0.13;;;;;;;;;;5009376;28;20432;-77
2022/10/10 11:16:12;;;;;;;0.30;0.30;;;;;;;;;;5010512;28;20425;-78
2022/10/10 11:18:43;;;;;;;0.10;0.10;;;;;;;;;;5010012;28;20773;-77
2022/10/10 11:21:13;;;;;;;0.37;0.37;;;;;;;;;;4989968;28;20486;-76
2022/10/10 11:23:49;;;;;;;0.10;0.10;;;;;;;;;;5005052;28;20420;-78
2022/10/10 11:26:15;;;;;;;0.10;0.10;;;;;;;;;;5002837;28;20433;-84
2022/10/10 11:28:50;;;;;;;0.10;0.10;;;;;;;;;;5011674;28;20444;-83
2022/10/10 11:31:20;;;;;;;0.10;0.10;;;;;;;;;;5008102;28;20961;-87
2022/10/10 11:33:48;;;;;;;0.30;0.30;;;;;;;;;;5007965;28;20432;-87
2022/10/10 11:36:14;;;;;;;0.20;0.20;;;;;;;;;;4995885;28;20437;-87
2022/10/10 11:38:57;;;;;;;0.10;0.10;;;;;;;;;;5007337;28;20428;-87
2022/10/10 11:41:28;;;;;;;0.90;0.60;;;;;;;;;;4983790;28;21126;-88
2022/10/10 11:44:01;;;;;;;0.20;0.20;;;;;;;;;;4997289;28;20422;-88
2022/10/10 11:46:42;;;;;;;0.17;0.17;;;;;;;;;;5005138;28;20840;-81
2022/10/10 11:49:12;;;;;;;0.40;0.40;;;;;;;;;;5009342;28;20486;-81
2022/10/10 11:51:50;;;;;;;0.10;0.10;;;;;;;;;;5013453;28;20764;-80
2022/10/10 11:54:39;;;;;;;0.10;0.10;;;;;;;;;;4995013;28;20442;-81
2022/10/10 11:57:11;;;;;;;0.20;0.20;;;;;;;;;;5005069;28;20441;-81
2022/10/10 11:59:41;;;;;;;0.20;0.20;;;;;;;;;;4998567;28;20437;-80
2022/10/10 12:02:26;;;;;;;0.50;0.50;;;;;;;;;;5014965;28;20412;-80
2022/10/10 12:04:52;;;;;;;0.55;0.32;;;;;;;;;;5001570;28;20437;-81
2022/10/10 12:07:25;;;;;;;0.13;0.13;;;;;;;;;;4994833;28;20433;-81
2022/10/10 12:09:54;;;;;;;0.20;0.20;;;;;;;;;;5006677;28;20915;-81
2022/10/10 12:12:27;;;;;;;0.10;0.10;;;;;;;;;;5013768;28;20437;-81
2022/10/10 12:14:54;;;;;;;1.80;0.80;;;;;;;;;;5011811;28;20900;-81
2022/10/10 12:17:24;;;;;;;0.17;0.17;;;;;;;;;;5020766;28;20438;-81
2022/10/10 12:19:51;;;;;;;0.45;0.45;;;;;;;;;;5011818;28;20433;-80
2022/10/10 12:22:28;;;;;;;0.20;0.20;;;;;;;;;;5007592;28;20431;-80
2022/10/10 12:25:09;;;;;;;0.10;0.10;;;;;;;;;;5020394;28;20424;-80
2022/10/10 12:27:42;;;;;;;0.10;0.10;;;;;;;;;;5014220;28;20429;-80
2022/10/10 12:30:08;;;;;;;0.10;0.10;;;;;;;;;;5012367;28;20424;-80
2022/10/10 12:32:40;;;;;;;0.10;0.10;;;;;;;;;;5012635;28;20464;-81
2022/10/10 12:35:27;;;;;;;0.00;0.00;;;;;;;;;;5027125;28;20431;-80
2022/10/10 12:38:13;;;;;;;0.10;0.10;;;;;;;;;;5012073;28;20440;-80
2022/10/10 12:41:11;;;;;;;0.10;0.10;;;;;;;;;;5009966;28;20432;-80
2022/10/10 12:43:41;;;;;;;0.10;0.10;;;;;;;;;;4995624;28;20448;-80
2022/10/10 12:46:33;;;;;;;1.00;0.50;;;;;;;;;;5018137;28;20518;-80
2022/10/10 12:49:05;;;;;;;1.20;0.30;;;;;;;;;;5018961;28;20432;-80
2022/10/10 12:51:34;;;;;;;0.10;0.10;;;;;;;;;;5017713;28;20431;-80
2022/10/10 12:54:02;;;;;;;0.20;0.20;;;;;;;;;;5038689;28;20504;-79
2022/10/10 12:56:54;;;;;;;0.30;0.20;;;;;;;;;;5035299;28;20427;-79
2022/10/10 12:59:24;;;;;;;0.60;0.60;;;;;;;;;;4988145;28;20440;-80
2022/10/10 13:01:52;;;;;;;0.30;0.30;;;;;;;;;;5015853;28;20439;-80
2022/10/10 13:04:18;;;;;;;0.10;0.10;;;;;;;;;;5016111;28;20439;-79
2022/10/10 13:06:45;;;;;;;0.10;0.10;;;;;;;;;;5030471;28;20497;-78
2022/10/10 13:09:17;;;;;;;0.20;0.20;;;;;;;;;;5014391;28;20787;-78
2022/10/10 13:11:49;;;;;;;0.10;0.10;;;;;;;;;;5013647;28;20428;-79
2022/10/10 13:14:15;;;;;;;0.38;0.38;;;;;;;;;;5013731;28;20401;-78
2022/10/10 13:16:43;;;;;;;0.10;0.10;;;;;;;;;;5013401;28;20436;-79
2022/10/10 13:19:16;;;;;;;0.10;0.10;;;;;;;;;;5031109;28;20469;-79
2022/10/10 13:21:42;;;;;;;0.20;0.20;;;;;;;;;;5033062;28;20445;-78
2022/10/10 13:24:13;;;;;;;0.20;0.20;;;;;;;;;;5030670;28;20430;-79
2022/10/10 13:26:43;;;;;;;0.45;0.45;;;;;;;;;;5025991;28;20411;-79
2022/10/10 13:29:24;;;;;;;0.10;0.10;;;;;;;;;;5030932;28;20462;-83
2022/10/10 13:31:51;;;;;;;0.70;0.70;;;;;;;;;;5011431;28;20413;-86
2022/10/10 13:34:19;;;;;;;0.10;0.10;;;;;;;;;;5029945;28;20573;-83
2022/10/10 13:36:45;;;;;;;0.30;0.10;;;;;;;;;;5012531;28;20518;-84
2022/10/10 13:39:16;;;;;;;0.10;0.10;;;;;;;;;;5027936;28;20438;-82
2022/10/10 13:41:45;;;;;;;0.10;0.10;;;;;;;;;;5010348;28;20476;-86
2022/10/10 13:44:15;;;;;;;0.10;0.10;;;;;;;;;;5029265;28;20435;-82
2022/10/10 13:46:41;;;;;;;0.10;0.10;;;;;;;;;;5013051;28;20427;-88
2022/10/10 13:49:29;;;;;;;0.20;0.20;;;;;;;;;;5012771;28;20439;-90
2022/10/10 13:52:01;;;;;;;0.00;0.00;;;;;;;;;;5030678;28;20763;-88
2022/10/10 13:54:41;;;;;;;0.10;0.10;;;;;;;;;;5013337;28;20440;-88
2022/10/10 13:57:12;;;;;;;0.10;0.10;;;;;;;;;;5030933;28;20427;-87
2022/10/10 13:59:38;;;;;;;0.03;0.03;;;;;;;;;;5011641;28;20447;-88
2022/10/10 14:02:09;;;;;;;0.10;0.10;;;;;;;;;;4993725;28;20432;-88
2022/10/10 14:04:43;;;;;;;0.10;0.10;;;;;;;;;;5001062;28;20910;-86
2022/10/10 14:07:29;;;;;;;0.10;0.10;;;;;;;;;;5011339;28;20474;-85
2022/10/10 14:09:55;;;;;;;0.10;0.10;;;;;;;;;;5011676;28;20814;-88
2022/10/10 14:12:42;;;;;;;0.10;0.10;;;;;;;;;;5003168;28;20569;-87
2022/10/10 14:15:26;;;;;;;0.10;0.10;;;;;;;;;;5013760;28;20495;-85
2022/10/10 14:17:52;;;;;;;0.10;0.10;;;;;;;;;;5012981;28;20443;-87
2022/10/10 14:20:18;;;;;;;0.30;0.30;;;;;;;;;;5036871;28;20513;-85
2022/10/10 14:22:44;;;;;;;0.10;0.10;;;;;;;;;;5011635;28;20842;-90
2022/10/10 14:25:10;;;;;;;0.30;0.20;;;;;;;;;;5029406;28;20434;-84
2022/10/10 14:27:37;;;;;;;0.10;0.10;;;;;;;;;;5002440;28;20433;-91
2022/10/10 14:30:03;;;;;;;1.60;0.80;;;;;;;;;;5012604;28;20961;-91
2022/10/10 14:32:29;;;;;;;0.10;0.10;;;;;;;;;;5012691;28;20470;-91
2022/10/10 14:34:55;;;;;;;0.10;0.10;;;;;;;;;;4993402;28;20424;-91
2022/10/10 14:37:25;;;;;;;0.90;0.50;;;;;;;;;;5007017;28;20443;-90
2022/10/10 14:39:52;;;;;;;0.10;0.10;;;;;;;;;;5013278;28;20470;-92
2022/10/10 14:42:19;;;;;;;0.10;0.10;;;;;;;;;;5008291;28;20502;-90
2022/10/10 14:44:45;;;;;;;0.08;0.08;;;;;;;;;;5005758;28;20794;-92
2022/10/10 14:47:15;;;;;;;0.10;0.10;;;;;;;;;;5013718;28;20430;-89
2022/10/10 14:49:42;;;;;;;0.10;0.10;;;;;;;;;;5012979;28;20462;-91
2022/10/10 14:52:08;;;;;;;0.10;0.10;;;;;;;;;;5011971;28;20435;-87
2022/10/10 14:54:34;;;;;;;0.10;0.10;;;;;;;;;;5003474;28;20431;-91
2022/10/10 14:57:00;;;;;;;0.10;0.10;;;;;;;;;;5012335;28;20438;-91